createdAt,value
2023-07-04T00:01:21.851Z,24.60
2023-07-04T00:03:55.522Z,24.60
2023-07-04T00:06:26.732Z,24.60
2023-07-04T00:08:54.179Z,24.60
2023-07-04T00:11:24.549Z,24.60
2023-07-04T00:13:52.210Z,24.60
2023-07-04T00:16:20.154Z,24.60
2023-07-04T00:18:49.433Z,24.60
2023-07-04T00:21:21.496Z,24.60
2023-07-04T00:23:54.570Z,24.60
2023-07-04T00:26:24.741Z,24.60
2023-07-04T00:28:57.198Z,24.60
2023-07-04T00:31:27.510Z,24.60
2023-07-04T00:33:55.419Z,24.60
2023-07-04T00:36:22.948Z,24.60
2023-07-04T00:38:58.294Z,24.60
2023-07-04T00:41:30.480Z,24.60
2023-07-04T00:44:08.784Z,24.60
2023-07-04T00:47:05.926Z,24.60
2023-07-04T00:49:44.235Z,24.60
2023-07-04T00:52:15.501Z,24.50
2023-07-04T00:54:49.182Z,24.50
2023-07-04T00:57:20.964Z,24.50
2023-07-04T00:59:58.943Z,24.50
2023-07-04T01:02:32.418Z,24.50
2023-07-04T01:05:01.434Z,24.50
2023-07-04T01:07:47.471Z,24.50
2023-07-04T01:10:36.466Z,24.50
2023-07-04T01:13:03.671Z,24.50
2023-07-04T01:15:31.676Z,24.50
2023-07-04T01:18:02.572Z,24.50
2023-07-04T01:20:29.962Z,24.50
2023-07-04T01:23:34.617Z,24.40
2023-07-04T01:26:39.027Z,24.40
2023-07-04T01:29:12.096Z,24.40
2023-07-04T01:31:47.716Z,24.40
2023-07-04T01:34:18.365Z,24.40
2023-07-04T01:36:48.535Z,24.40
2023-07-04T01:39:18.317Z,24.40
2023-07-04T01:41:46.794Z,24.30
2023-07-04T01:44:17.987Z,24.30
2023-07-04T01:46:45.678Z,24.30
2023-07-04T01:49:13.880Z,24.20
2023-07-04T01:51:42.783Z,24.20
2023-07-04T01:54:20.019Z,24.20
2023-07-04T01:56:57.885Z,24.20
2023-07-04T01:59:27.563Z,24.20
2023-07-04T02:01:54.453Z,24.20
2023-07-04T02:04:21.338Z,24.10
2023-07-04T02:06:48.302Z,24.10
2023-07-04T02:09:18.328Z,24.00
2023-07-04T02:11:46.910Z,24.00
2023-07-04T02:14:14.855Z,24.00
2023-07-04T02:16:41.805Z,24.00
2023-07-04T02:19:08.792Z,24.00
2023-07-04T02:21:38.351Z,24.00
2023-07-04T02:24:05.817Z,24.00
2023-07-04T02:26:40.445Z,23.90
2023-07-04T02:29:09.676Z,23.90
2023-07-04T02:31:36.585Z,24.00
2023-07-04T02:34:05.863Z,23.90
2023-07-04T02:36:35.349Z,23.90
2023-07-04T02:39:05.228Z,23.90
2023-07-04T02:41:32.299Z,23.90
2023-07-04T02:44:01.457Z,23.90
2023-07-04T02:46:28.500Z,23.90
2023-07-04T02:48:57.863Z,23.90
2023-07-04T02:51:24.805Z,23.90
2023-07-04T02:53:51.712Z,23.80
2023-07-04T02:56:18.657Z,23.80
2023-07-04T02:58:48.145Z,23.80
2023-07-04T03:01:17.364Z,23.90
2023-07-04T03:03:44.613Z,23.80
2023-07-04T03:06:14.328Z,23.80
2023-07-04T03:08:41.299Z,23.80
2023-07-04T03:11:10.294Z,23.80
2023-07-04T03:13:37.288Z,23.80
2023-07-04T03:16:04.459Z,23.80
2023-07-04T03:18:33.867Z,23.80
2023-07-04T03:21:05.358Z,23.80
2023-07-04T03:23:32.300Z,23.80
2023-07-04T03:26:01.320Z,23.80
2023-07-04T03:28:30.267Z,23.80
2023-07-04T03:30:58.217Z,23.80
2023-07-04T03:33:27.441Z,23.80
2023-07-04T03:35:59.356Z,23.70
2023-07-04T03:38:27.539Z,23.70
2023-07-04T03:40:54.792Z,23.70
2023-07-04T03:43:23.603Z,23.70
2023-07-04T03:45:50.503Z,23.70
2023-07-04T03:48:17.648Z,23.70
2023-07-04T03:50:45.431Z,23.60
2023-07-04T03:53:12.394Z,23.70
2023-07-04T03:55:39.442Z,23.70
2023-07-04T03:58:11.447Z,23.60
2023-07-04T04:00:38.372Z,23.60
2023-07-04T04:03:07.634Z,23.60
2023-07-04T04:05:39.906Z,23.50
2023-07-04T04:08:06.853Z,23.60
2023-07-04T04:10:33.810Z,23.50
2023-07-04T04:13:03.771Z,23.60
2023-07-04T04:15:33.051Z,23.50
2023-07-04T04:18:00.059Z,23.50
2023-07-04T04:20:31.738Z,23.50
2023-07-04T04:23:01.562Z,23.60
2023-07-04T04:25:28.533Z,23.50
2023-07-04T04:27:57.923Z,23.60
2023-07-04T04:30:27.400Z,23.60
2023-07-04T04:32:56.623Z,23.50
2023-07-04T04:35:23.656Z,23.60
2023-07-04T04:37:50.541Z,23.50
2023-07-04T04:40:20.022Z,23.50
2023-07-04T04:42:48.214Z,23.50
2023-07-04T04:45:15.365Z,23.60
2023-07-04T04:47:54.169Z,23.50
2023-07-04T04:50:26.660Z,23.50
2023-07-04T04:52:53.906Z,23.50
2023-07-04T04:55:23.443Z,23.50
2023-07-04T04:57:51.113Z,23.50
2023-07-04T05:00:18.976Z,23.50
2023-07-04T05:02:49.200Z,23.60
2023-07-04T05:05:17.741Z,23.60
2023-07-04T05:07:47.076Z,23.60
2023-07-04T05:10:14.108Z,23.50
2023-07-04T05:12:43.594Z,23.50
2023-07-04T05:15:10.580Z,23.60
2023-07-04T05:17:42.128Z,23.60
2023-07-04T05:20:14.542Z,23.70
2023-07-04T05:22:43.408Z,23.60
2023-07-04T05:25:11.935Z,23.60
2023-07-04T05:27:38.892Z,23.70
2023-07-04T05:30:11.271Z,23.70
2023-07-04T05:32:38.225Z,23.70
2023-07-04T05:35:05.882Z,23.70
2023-07-04T05:37:34.942Z,23.70
2023-07-04T05:40:01.949Z,23.70
2023-07-04T05:42:30.317Z,23.70
2023-07-04T05:44:59.611Z,23.80
2023-07-04T05:47:26.541Z,23.70
2023-07-04T05:49:55.603Z,23.70
2023-07-04T05:52:22.531Z,23.70
2023-07-04T05:54:49.654Z,23.80
2023-07-04T05:57:16.514Z,23.80
2023-07-04T05:59:45.507Z,23.80
2023-07-04T06:02:12.506Z,23.80
2023-07-04T06:04:39.679Z,23.80
2023-07-04T06:07:11.340Z,23.90
2023-07-04T06:09:38.303Z,23.90
2023-07-04T06:12:08.391Z,24.00
2023-07-04T06:14:40.619Z,24.00
2023-07-04T06:17:09.695Z,24.00
2023-07-04T06:19:38.979Z,24.00
2023-07-04T06:22:08.354Z,24.10
2023-07-04T06:24:37.452Z,24.10
2023-07-04T06:27:09.067Z,24.20
2023-07-04T06:29:35.986Z,24.20
2023-07-04T06:32:05.705Z,24.30
2023-07-04T06:34:33.130Z,24.40
2023-07-04T06:37:02.544Z,24.40
2023-07-04T06:39:31.699Z,24.50
2023-07-04T06:41:58.612Z,24.60
2023-07-04T06:44:27.746Z,24.70
2023-07-04T06:46:57.339Z,24.80
2023-07-04T06:49:24.641Z,24.80
2023-07-04T06:51:54.000Z,24.90
2023-07-04T06:54:20.989Z,25.00
2023-07-04T06:56:47.886Z,25.10
2023-07-04T06:59:16.904Z,25.20
2023-07-04T07:01:46.129Z,25.30
2023-07-04T07:04:17.236Z,25.50
2023-07-04T07:06:44.098Z,25.60
2023-07-04T07:09:11.102Z,25.80
2023-07-04T07:11:38.037Z,25.90
2023-07-04T07:14:06.494Z,26.10
2023-07-04T07:16:34.184Z,26.20
2023-07-04T07:19:01.137Z,26.20
2023-07-04T07:21:28.179Z,26.30
2023-07-04T07:23:57.885Z,26.40
2023-07-04T07:26:27.008Z,26.50
2023-07-04T07:28:55.567Z,26.50
2023-07-04T07:31:32.945Z,26.60
2023-07-04T07:34:04.217Z,26.70
2023-07-04T07:36:42.650Z,26.80
2023-07-04T07:39:17.713Z,26.90
2023-07-04T07:41:48.808Z,27.10
2023-07-04T07:44:19.146Z,27.30
2023-07-04T07:46:46.299Z,27.20
2023-07-04T07:49:16.400Z,27.50
2023-07-04T07:51:44.559Z,27.60
2023-07-04T07:54:12.043Z,27.80
2023-07-04T07:56:44.195Z,27.80
2023-07-04T07:59:12.481Z,27.80
2023-07-04T08:01:42.289Z,27.80
2023-07-04T08:04:14.549Z,27.80
2023-07-04T08:06:47.736Z,27.80
2023-07-04T08:09:21.315Z,27.80
2023-07-04T08:11:52.935Z,27.70
2023-07-04T08:14:20.786Z,27.70
2023-07-04T08:16:54.921Z,27.60
2023-07-04T08:19:24.794Z,27.60
2023-07-04T08:21:52.628Z,27.60
2023-07-04T08:24:22.093Z,27.50
2023-07-04T08:26:49.138Z,27.50
2023-07-04T08:29:16.868Z,27.50
2023-07-04T08:31:43.887Z,27.50
2023-07-04T08:34:11.556Z,27.50
2023-07-04T08:36:41.291Z,27.50
2023-07-04T08:39:11.851Z,27.60
2023-07-04T08:41:47.014Z,27.60
2023-07-04T08:44:22.597Z,27.60
2023-07-04T08:46:55.294Z,27.60
2023-07-04T08:50:03.917Z,27.70
2023-07-04T08:52:38.042Z,27.60
2023-07-04T08:55:12.858Z,27.70
2023-07-04T08:57:42.853Z,27.80
2023-07-04T09:00:38.643Z,27.80
2023-07-04T09:03:44.995Z,27.90
2023-07-04T09:07:07.091Z,27.90
2023-07-04T09:10:08.736Z,28.00
2023-07-04T09:12:38.872Z,28.10
2023-07-04T09:15:41.800Z,28.10
2023-07-04T09:18:26.764Z,28.10
2023-07-04T09:21:15.832Z,28.20
2023-07-04T09:23:45.138Z,28.20
2023-07-04T09:26:17.814Z,28.20
2023-07-04T09:28:48.151Z,28.20
2023-07-04T09:31:32.911Z,28.20
2023-07-04T09:34:07.339Z,28.20
2023-07-04T09:36:42.284Z,28.20
2023-07-04T09:39:12.018Z,28.20
2023-07-04T09:42:07.745Z,28.20
2023-07-04T09:44:31.466Z,28.20
2023-07-04T09:47:01.405Z,28.10
2023-07-04T09:49:37.342Z,28.10
2023-07-04T09:52:19.635Z,28.00
2023-07-04T09:55:08.718Z,27.90
2023-07-04T09:57:36.101Z,27.90
2023-07-04T10:00:24.529Z,27.90
2023-07-04T10:02:57.400Z,27.80
2023-07-04T10:05:36.293Z,27.80
2023-07-04T10:08:11.247Z,27.80
2023-07-04T10:10:54.515Z,27.90
2023-07-04T10:13:35.777Z,27.90
2023-07-04T10:16:02.739Z,27.90
2023-07-04T10:18:33.506Z,27.90
2023-07-04T10:21:04.666Z,27.90
2023-07-04T10:23:33.119Z,27.90
2023-07-04T10:26:02.220Z,27.70
2023-07-04T10:28:31.002Z,27.90
2023-07-04T10:31:13.738Z,27.90
2023-07-04T10:33:49.695Z,27.90
2023-07-04T10:36:33.336Z,27.80
2023-07-04T10:39:13.258Z,27.80
2023-07-04T10:42:05.564Z,27.80
2023-07-04T10:44:38.292Z,27.80
2023-07-04T10:47:23.660Z,27.80
2023-07-04T10:49:58.376Z,27.70
2023-07-04T10:52:34.466Z,27.70
2023-07-04T10:55:03.983Z,27.70
2023-07-04T10:57:49.851Z,27.70
2023-07-04T11:00:25.731Z,27.70
2023-07-04T11:03:01.289Z,27.70
2023-07-04T11:05:46.284Z,27.70
2023-07-04T11:08:23.494Z,27.70
2023-07-04T11:11:14.083Z,27.70
2023-07-04T11:13:57.610Z,27.80
2023-07-04T11:16:30.470Z,27.70
2023-07-04T11:19:10.785Z,27.70
2023-07-04T11:22:01.489Z,27.70
2023-07-04T11:24:55.309Z,27.70
2023-07-04T11:27:31.778Z,27.70
2023-07-04T11:30:07.156Z,27.80
2023-07-04T11:32:40.836Z,27.80
2023-07-04T11:35:11.146Z,27.80
2023-07-04T11:37:52.717Z,27.90
2023-07-04T11:40:33.253Z,27.90
2023-07-04T11:43:05.915Z,27.90
2023-07-04T11:45:34.067Z,27.90
2023-07-04T11:48:14.821Z,28.00
2023-07-04T11:50:49.768Z,28.00
2023-07-04T11:53:23.225Z,28.10
2023-07-04T11:56:27.793Z,28.10
2023-07-04T11:59:15.543Z,28.10
2023-07-04T12:02:13.824Z,28.20
2023-07-04T12:04:40.746Z,28.20
2023-07-04T12:07:54.627Z,28.30
2023-07-04T12:10:21.893Z,28.40
2023-07-04T12:13:03.974Z,28.50
2023-07-04T12:15:35.967Z,28.60
2023-07-04T12:18:22.007Z,28.70
2023-07-04T12:20:48.901Z,28.80
2023-07-04T12:23:16.577Z,28.90
2023-07-04T12:25:47.281Z,29.00
2023-07-04T12:28:19.097Z,29.00
2023-07-04T12:30:54.600Z,29.00
2023-07-04T12:33:32.277Z,29.10
2023-07-04T12:36:10.876Z,29.10
2023-07-04T12:38:51.927Z,29.20
2023-07-04T12:41:21.730Z,29.20
2023-07-04T12:54:10.978Z,29.40
2023-07-04T12:56:43.828Z,29.50
2023-07-04T12:59:37.750Z,29.50
2023-07-04T13:02:23.901Z,29.50
2023-07-04T13:04:57.522Z,29.60
2023-07-04T13:07:25.999Z,29.70
2023-07-04T13:09:57.053Z,29.70
2023-07-04T13:12:27.509Z,29.70
2023-07-04T13:15:09.619Z,29.50
2023-07-04T13:17:36.649Z,29.60
2023-07-04T13:20:18.092Z,29.70
2023-07-04T13:25:44.661Z,29.70
2023-07-04T13:33:00.105Z,29.60
2023-07-04T13:33:42.218Z,29.60
2023-07-04T13:36:20.608Z,29.60
2023-07-04T13:41:30.330Z,29.50
2023-07-04T13:46:27.400Z,29.50
2023-07-04T13:48:56.605Z,29.50
2023-07-04T13:51:26.602Z,29.50
2023-07-04T13:53:58.898Z,29.60
2023-07-04T13:56:26.267Z,29.60
2023-07-04T13:58:54.486Z,29.60
2023-07-04T14:06:24.588Z,29.60
2023-07-04T14:08:54.228Z,29.60
2023-07-04T14:11:24.423Z,29.60
2023-07-04T14:13:59.743Z,29.60
2023-07-04T14:19:58.867Z,29.60
2023-07-04T14:21:52.220Z,29.70
2023-07-04T14:24:21.393Z,29.70
2023-07-04T14:26:48.278Z,29.70
2023-07-04T14:29:15.165Z,29.70
2023-07-04T14:31:42.248Z,29.70
2023-07-04T14:34:09.217Z,29.70
2023-07-04T14:36:37.612Z,29.70
2023-07-04T14:39:05.120Z,29.70
2023-07-04T14:44:06.138Z,29.70
2023-07-04T14:46:33.483Z,29.70
2023-07-04T14:49:00.442Z,29.70
2023-07-04T14:51:27.365Z,29.70
2023-07-04T14:53:58.987Z,29.70
2023-07-04T14:56:33.136Z,29.70
2023-07-04T14:59:06.256Z,29.70
2023-07-04T15:01:33.282Z,29.70
2023-07-04T15:04:00.431Z,29.70
2023-07-04T15:06:29.393Z,29.70
2023-07-04T15:08:58.676Z,29.70
2023-07-04T15:11:25.781Z,29.70
2023-07-04T15:13:52.679Z,29.70
2023-07-04T15:16:22.064Z,29.70
2023-07-04T15:18:53.720Z,29.70
2023-07-04T15:21:20.644Z,29.70
2023-07-04T15:23:47.605Z,29.70
2023-07-04T15:26:26.284Z,29.70
2023-07-04T15:28:56.567Z,29.70
2023-07-04T15:31:24.253Z,29.70
2023-07-04T15:33:52.804Z,29.70
2023-07-04T15:36:20.787Z,29.70
2023-07-04T15:38:50.013Z,29.70
2023-07-04T15:41:22.641Z,29.70
2023-07-04T15:43:50.625Z,29.70
2023-07-04T15:46:17.789Z,29.70
2023-07-04T15:48:45.604Z,29.70
2023-07-04T15:51:22.461Z,29.70
2023-07-04T15:53:56.459Z,29.70
2023-07-04T15:56:23.707Z,29.70
2023-07-04T15:58:51.160Z,29.70
2023-07-04T16:01:18.270Z,29.70
2023-07-04T16:03:48.003Z,29.70
2023-07-04T16:06:17.498Z,29.70
2023-07-04T16:08:45.108Z,29.60
2023-07-04T16:11:14.591Z,29.60
2023-07-04T16:13:44.492Z,29.60
2023-07-04T16:16:14.147Z,29.50
2023-07-04T16:18:41.127Z,29.60
2023-07-04T16:21:11.577Z,29.60
2023-07-04T16:23:38.775Z,29.60
2023-07-04T16:26:07.907Z,29.60
2023-07-04T16:28:40.393Z,29.60
2023-07-04T16:31:09.836Z,29.60
2023-07-04T16:33:36.910Z,29.60
2023-07-04T16:36:07.101Z,29.60
2023-07-04T16:38:34.530Z,29.60
2023-07-04T16:41:07.838Z,29.60
2023-07-04T16:43:34.926Z,29.60
2023-07-04T16:46:04.178Z,29.60
2023-07-04T16:48:36.252Z,29.50
2023-07-04T16:51:03.271Z,29.50
2023-07-04T16:53:33.147Z,29.50
2023-07-04T16:56:04.014Z,29.50
2023-07-04T16:58:34.277Z,29.50
2023-07-04T17:01:03.510Z,29.40
2023-07-04T17:03:33.766Z,29.50
2023-07-04T17:06:09.656Z,29.50
2023-07-04T17:08:38.212Z,29.30
2023-07-04T17:11:09.594Z,29.40
2023-07-04T17:13:39.553Z,29.30
2023-07-04T17:16:12.761Z,29.10
2023-07-04T17:18:42.009Z,29.30
2023-07-04T17:21:09.781Z,29.20
2023-07-04T17:23:37.029Z,29.20
2023-07-04T17:26:06.870Z,29.20
2023-07-04T17:28:36.650Z,29.10
2023-07-04T17:31:06.957Z,29.10
2023-07-04T17:33:34.325Z,29.00
2023-07-04T17:36:16.142Z,28.90
2023-07-04T17:38:43.850Z,28.90
2023-07-04T17:41:14.092Z,28.90
2023-07-04T17:43:43.730Z,28.80
2023-07-04T17:46:13.245Z,28.70
2023-07-04T17:48:42.503Z,28.70
2023-07-04T17:51:13.216Z,28.70
2023-07-04T17:53:40.314Z,28.70
2023-07-04T17:56:11.952Z,28.70
2023-07-04T17:58:40.820Z,28.60
2023-07-04T18:01:20.269Z,28.60
2023-07-04T18:03:52.198Z,28.60
2023-07-04T18:06:24.231Z,28.50
2023-07-04T18:08:51.757Z,28.50
2023-07-04T18:11:25.332Z,28.50
2023-07-04T18:13:56.025Z,28.50
2023-07-04T18:16:23.507Z,28.50
2023-07-04T18:18:53.610Z,28.40
2023-07-04T18:21:25.990Z,28.40
2023-07-04T18:23:59.470Z,28.40
2023-07-04T18:26:33.537Z,28.30
2023-07-04T18:29:06.485Z,28.40
2023-07-04T18:31:33.539Z,28.30
2023-07-04T18:34:01.825Z,28.30
2023-07-04T18:36:33.751Z,28.20
2023-07-04T18:39:01.016Z,28.20
2023-07-04T18:41:38.640Z,28.20
2023-07-04T18:44:07.487Z,28.20
2023-07-04T18:46:36.961Z,28.10
2023-07-04T18:49:05.175Z,28.10
2023-07-04T18:51:35.843Z,28.00
2023-07-04T18:54:05.720Z,28.00
2023-07-04T18:56:38.463Z,28.00
2023-07-04T18:59:05.815Z,27.90
2023-07-04T19:01:33.194Z,27.90
2023-07-04T19:04:03.704Z,27.90
2023-07-04T19:06:35.360Z,27.80
2023-07-04T19:09:03.643Z,27.70
2023-07-04T19:11:35.947Z,27.70
2023-07-04T19:14:18.841Z,27.60
2023-07-04T19:16:55.611Z,27.60
2023-07-04T19:19:45.115Z,27.50
2023-07-04T19:22:12.285Z,27.40
2023-07-04T19:24:43.379Z,27.40
2023-07-04T19:27:15.620Z,27.40
2023-07-04T19:29:44.193Z,27.30
2023-07-04T19:32:14.425Z,27.30
2023-07-04T19:34:42.209Z,27.30
2023-07-04T19:37:10.232Z,27.20
2023-07-04T19:39:38.940Z,27.20
2023-07-04T19:42:06.715Z,27.10
2023-07-04T19:44:36.337Z,27.10
2023-07-04T19:47:03.829Z,27.00
2023-07-04T19:49:31.628Z,27.00
2023-07-04T19:52:01.431Z,26.90
2023-07-04T19:54:29.453Z,26.90
2023-07-04T19:56:57.487Z,26.80
2023-07-04T19:59:25.520Z,26.80
2023-07-04T20:01:55.194Z,26.70
2023-07-04T20:04:22.529Z,26.70
2023-07-04T20:06:52.035Z,26.60
2023-07-04T20:09:21.392Z,26.60
2023-07-04T20:11:48.366Z,26.60
2023-07-04T20:14:15.322Z,26.60
2023-07-04T20:16:44.483Z,26.50
2023-07-04T20:19:13.795Z,26.50
2023-07-04T20:21:40.869Z,26.50
2023-07-04T20:24:08.498Z,26.40
2023-07-04T20:26:35.454Z,26.40
2023-07-04T20:29:02.455Z,26.30
2023-07-04T20:31:34.349Z,26.30
2023-07-04T20:34:03.331Z,26.30
2023-07-04T20:36:30.391Z,26.20
2023-07-04T20:38:57.558Z,26.20
2023-07-04T20:41:24.882Z,26.20
2023-07-04T20:43:52.073Z,26.10
2023-07-04T20:46:19.137Z,26.10
2023-07-04T20:48:50.578Z,26.10
2023-07-04T20:51:18.900Z,26.00
2023-07-04T20:53:48.906Z,26.00
2023-07-04T20:56:16.247Z,26.00
2023-07-04T20:58:43.381Z,25.90
2023-07-04T21:01:10.682Z,25.90
2023-07-04T21:03:37.759Z,25.90
2023-07-04T21:06:06.590Z,25.80
2023-07-04T21:08:34.510Z,25.80
2023-07-04T21:11:04.967Z,25.80
2023-07-04T21:13:38.753Z,25.80
2023-07-04T21:16:11.200Z,25.70
2023-07-04T21:18:42.388Z,25.70
2023-07-04T21:21:10.124Z,25.70
2023-07-04T21:23:39.685Z,25.40
2023-07-04T21:26:10.512Z,25.60
2023-07-04T21:28:40.624Z,25.70
2023-07-04T21:31:13.688Z,25.70
2023-07-04T21:33:41.867Z,25.70
2023-07-04T21:36:12.539Z,25.60
2023-07-04T21:38:40.917Z,25.60
2023-07-04T21:41:10.525Z,25.60
2023-07-04T21:43:40.134Z,25.60
2023-07-04T21:46:09.417Z,25.60
2023-07-04T21:48:37.061Z,25.60
2023-07-04T21:51:09.539Z,25.60
2023-07-04T21:53:36.925Z,25.60
2023-07-04T21:56:04.072Z,25.60
2023-07-04T21:58:34.436Z,25.60
2023-07-04T22:01:03.731Z,25.50
2023-07-04T22:03:32.738Z,25.50
2023-07-04T22:06:11.458Z,25.50
2023-07-04T22:08:44.302Z,25.50
2023-07-04T22:11:14.585Z,25.50
2023-07-04T22:13:47.302Z,25.50
2023-07-04T22:16:19.290Z,25.40
2023-07-04T22:18:48.402Z,25.40
2023-07-04T22:21:18.959Z,25.40
2023-07-04T22:23:48.364Z,25.40
2023-07-04T22:26:15.828Z,25.30
2023-07-04T22:28:47.965Z,25.30
2023-07-04T22:31:17.432Z,25.30
2023-07-04T22:34:00.108Z,25.30
2023-07-04T22:36:32.561Z,25.30
2023-07-04T22:39:04.989Z,25.20
2023-07-04T22:41:32.724Z,25.20
2023-07-04T22:44:00.266Z,25.10
2023-07-04T22:46:32.500Z,25.10
2023-07-04T22:49:00.017Z,25.10
2023-07-04T22:51:27.017Z,25.10
2023-07-04T22:53:54.569Z,25.00
2023-07-04T22:56:22.050Z,25.00
2023-07-04T22:58:49.110Z,25.00
2023-07-04T23:01:22.028Z,24.90
2023-07-04T23:03:49.608Z,24.80
2023-07-04T23:06:17.736Z,24.80
2023-07-04T23:08:45.561Z,24.80
2023-07-04T23:11:13.924Z,24.70
2023-07-04T23:13:41.323Z,24.70
2023-07-04T23:16:20.489Z,24.60
2023-07-04T23:18:51.918Z,24.60
2023-07-04T23:21:19.400Z,24.60
2023-07-04T23:23:48.865Z,24.30
2023-07-04T23:26:22.048Z,24.40
2023-07-04T23:28:49.028Z,24.40
2023-07-04T23:31:16.431Z,24.40
2023-07-04T23:33:48.073Z,24.30
2023-07-04T23:36:17.512Z,24.30
2023-07-04T23:38:50.038Z,24.20
2023-07-04T23:41:18.609Z,24.20
2023-07-04T23:43:46.487Z,24.10
2023-07-04T23:46:16.322Z,24.10
2023-07-04T23:48:45.767Z,24.10
2023-07-04T23:51:12.725Z,24.10
2023-07-04T23:53:39.689Z,24.00
2023-07-04T23:56:06.743Z,24.00
2023-07-04T23:58:33.783Z,24.00
